Time;durP1;ratioP1;P1;durP2;ratioP2;P2;SDS_P1;SDS_P2;PMS_P1;PMS_P2;Temp;Humidity;BMP_temperature;BMP_pressure;BME280_temperature;BME280_humidity;BME280_pressure;Samples;Min_cycle;Max_cycle;Signal;HPM_P1;HPM_P2
2020/12/21 00:02:13;;;;;;;8.57;2.97;;;7.20;94.00;;;;;;4795069;29;20079;-79
2020/12/21 00:04:41;;;;;;;4.40;1.57;;;7.20;94.00;;;;;;4808280;29;20084;-79
2020/12/21 00:07:08;;;;;;;5.53;1.73;;;7.20;94.00;;;;;;4827405;29;20047;-79
2020/12/21 00:09:34;;;;;;;6.77;2.03;;;7.20;94.00;;;;;;4825343;29;20049;-80
2020/12/21 00:12:02;;;;;;;4.10;1.43;;;7.20;94.00;;;;;;4819050;29;20110;-80
2020/12/21 00:14:29;;;;;;;4.07;1.93;;;7.20;94.00;;;;;;4840371;29;20042;-79
2020/12/21 00:16:56;;;;;;;4.47;1.57;;;7.20;94.10;;;;;;4841604;29;20571;-80
2020/12/21 00:19:24;;;;;;;5.53;1.63;;;7.10;94.00;;;;;;4825123;29;20046;-78
2020/12/21 00:21:52;;;;;;;3.93;1.80;;;7.10;94.10;;;;;;4799342;29;20050;-77
2020/12/21 00:24:22;;;;;;;2.67;1.17;;;7.00;94.10;;;;;;4828615;29;20072;-78
2020/12/21 00:26:51;;;;;;;2.67;1.33;;;7.00;94.10;;;;;;4828912;29;20062;-79
2020/12/21 00:29:18;;;;;;;5.53;1.47;;;7.00;94.20;;;;;;4826261;29;20098;-80
2020/12/21 00:31:46;;;;;;;3.23;1.27;;;7.00;94.20;;;;;;4845312;29;20042;-80
2020/12/21 00:34:13;;;;;;;3.43;1.27;;;7.00;94.20;;;;;;4845037;29;20056;-76
2020/12/21 00:36:49;;;;;;;3.13;1.03;;;6.90;94.20;;;;;;4833652;29;20037;-76
2020/12/21 00:39:17;;;;;;;6.20;1.80;;;6.90;94.20;;;;;;4813290;29;20054;-76
2020/12/21 00:41:44;;;;;;;2.93;0.83;;;6.90;94.20;;;;;;4844097;29;20049;-77
2020/12/21 00:44:11;;;;;;;4.00;1.27;;;6.90;94.20;;;;;;4844913;29;20049;-76
2020/12/21 00:46:38;;;;;;;3.63;1.30;;;6.90;94.20;;;;;;4822019;29;20042;-79
2020/12/21 00:49:06;;;;;;;3.63;1.17;;;6.80;94.20;;;;;;4843054;29;20145;-76
2020/12/21 00:51:33;;;;;;;3.40;1.00;;;6.80;94.20;;;;;;4827109;29;20049;-77
2020/12/21 00:54:01;;;;;;;4.27;0.97;;;6.80;94.20;;;;;;4813127;29;20092;-77
2020/12/21 00:56:27;;;;;;;2.70;0.97;;;6.80;94.20;;;;;;4830256;29;20133;-76
2020/12/21 00:58:54;;;;;;;2.77;1.20;;;6.70;94.30;;;;;;4844253;29;20122;-77
2020/12/21 01:01:26;;;;;;;4.23;1.13;;;6.70;94.30;;;;;;4816306;29;20046;-77
2020/12/21 01:03:58;;;;;;;3.37;1.20;;;6.70;94.30;;;;;;4827476;29;20088;-78
2020/12/21 01:06:26;;;;;;;4.40;1.73;;;6.70;94.30;;;;;;4827777;29;20050;-76
2020/12/21 01:08:58;;;;;;;4.80;1.70;;;6.70;94.30;;;;;;4844197;29;20091;-78
2020/12/21 01:11:28;;;;;;;6.17;1.90;;;6.70;94.30;;;;;;4838448;29;20069;-73
2020/12/21 01:13:56;;;;;;;4.67;1.53;;;6.70;94.30;;;;;;4843052;29;20045;-73
2020/12/21 01:16:22;;;;;;;6.77;1.33;;;6.70;94.30;;;;;;4811782;29;20037;-73
2020/12/21 01:18:50;;;;;;;5.03;1.70;;;6.60;94.20;;;;;;4843425;29;20111;-73
2020/12/21 01:21:30;;;;;;;3.70;1.30;;;6.60;94.20;;;;;;4841614;29;20091;-73
2020/12/21 01:23:58;;;;;;;3.13;1.17;;;6.60;94.30;;;;;;4826243;29;20045;-73
2020/12/21 01:26:25;;;;;;;4.73;0.93;;;6.50;94.30;;;;;;4845525;29;20102;-73
2020/12/21 01:28:53;;;;;;;3.80;1.03;;;6.50;94.30;;;;;;4842961;29;20049;-73
2020/12/21 01:31:20;;;;;;;2.40;1.10;;;6.40;94.30;;;;;;4840866;29;20495;-73
2020/12/21 01:33:48;;;;;;;3.73;0.87;;;6.40;94.40;;;;;;4843061;29;20102;-73
2020/12/21 01:36:16;;;;;;;2.43;0.90;;;6.30;94.40;;;;;;4839689;29;22177;-73
2020/12/21 01:38:45;;;;;;;2.57;0.80;;;6.30;94.40;;;;;;4825058;29;20099;-73
2020/12/21 01:41:12;;;;;;;2.33;0.87;;;6.30;94.40;;;;;;4841280;29;20042;-74
2020/12/21 01:43:38;;;;;;;1.77;0.83;;;6.30;94.50;;;;;;4811491;29;20038;-74
2020/12/21 01:46:14;;;;;;;3.07;1.07;;;6.30;94.50;;;;;;4842412;29;20501;-73
2020/12/21 01:48:43;;;;;;;2.40;0.90;;;6.30;94.50;;;;;;4834322;29;20129;-73
2020/12/21 01:51:21;;;;;;;2.80;1.00;;;6.30;94.40;;;;;;4825347;29;20088;-74
2020/12/21 01:53:48;;;;;;;3.07;0.97;;;6.30;94.40;;;;;;4825569;29;20537;-73
2020/12/21 01:56:16;;;;;;;2.73;0.70;;;6.30;94.50;;;;;;4823076;29;20074;-73
2020/12/21 01:58:45;;;;;;;3.93;1.20;;;6.30;94.50;;;;;;4826198;29;20054;-73
2020/12/21 02:01:13;;;;;;;8.83;1.40;;;6.20;94.50;;;;;;4840823;29;20443;-74
2020/12/21 02:03:42;;;;;;;2.50;0.80;;;6.20;94.50;;;;;;4842574;29;20099;-73
2020/12/21 02:06:10;;;;;;;5.57;1.50;;;6.20;94.50;;;;;;4825737;29;20136;-74
2020/12/21 02:08:37;;;;;;;3.30;1.10;;;6.20;94.50;;;;;;4827347;29;20053;-74
2020/12/21 02:11:04;;;;;;;4.60;0.93;;;6.20;94.50;;;;;;4840982;29;20132;-74
2020/12/21 02:13:31;;;;;;;2.87;1.13;;;6.20;94.50;;;;;;4841326;29;20160;-74
2020/12/21 02:16:00;;;;;;;2.93;0.87;;;6.30;94.70;;;;;;4810198;29;20087;-74
2020/12/21 02:18:27;;;;;;;1.60;0.70;;;6.20;94.50;;;;;;4843019;29;20034;-74
2020/12/21 02:20:53;;;;;;;2.90;0.80;;;6.20;94.50;;;;;;4824351;29;20404;-73
2020/12/21 02:23:20;;;;;;;2.10;0.67;;;6.20;94.50;;;;;;4826005;29;20407;-74
2020/12/21 02:25:47;;;;;;;3.07;0.87;;;6.20;94.50;;;;;;4844050;29;20054;-73
2020/12/21 02:28:14;;;;;;;2.93;0.80;;;6.20;94.50;;;;;;4860836;29;20069;-74
2020/12/21 02:30:41;;;;;;;3.53;1.07;;;6.20;94.50;;;;;;4844050;29;20053;-74
2020/12/21 02:33:07;;;;;;;2.17;1.00;;;6.20;94.50;;;;;;4843857;29;20505;-74
2020/12/21 02:35:35;;;;;;;2.43;0.60;;;6.20;94.50;;;;;;4843794;29;20041;-74
2020/12/21 02:38:08;;;;;;;4.00;1.00;;;6.20;94.50;;;;;;4859239;29;20547;-74
2020/12/21 02:40:39;;;;;;;3.63;0.95;;;6.20;94.50;;;;;;4844219;29;20045;-74
2020/12/21 02:43:21;;;;;;;3.27;0.77;;;6.20;94.50;;;;;;4859045;29;20037;-74
2020/12/21 02:45:49;;;;;;;2.43;0.50;;;6.20;94.50;;;;;;4859618;29;20410;-74
2020/12/21 02:48:16;;;;;;;2.27;1.03;;;6.20;94.50;;;;;;4860205;29;20124;-74
2020/12/21 02:50:44;;;;;;;1.87;0.83;;;6.20;94.80;;;;;;4841261;29;20490;-74
2020/12/21 02:53:12;;;;;;;2.50;0.73;;;6.20;94.50;;;;;;4843669;29;20052;-74
2020/12/21 02:55:39;;;;;;;4.17;1.03;;;6.10;94.50;;;;;;4860112;29;20371;-74
2020/12/21 02:58:05;;;;;;;4.50;1.00;;;6.10;94.60;;;;;;4860381;29;20042;-74
2020/12/21 03:00:34;;;;;;;2.70;0.97;;;6.10;94.50;;;;;;4856135;29;20045;-74
2020/12/21 03:03:06;;;;;;;2.60;0.70;;;6.10;94.50;;;;;;4860326;29;20098;-73
2020/12/21 03:05:33;;;;;;;2.78;1.00;;;6.10;94.50;;;;;;4828331;29;20101;-74
2020/12/21 03:08:03;;;;;;;2.87;1.00;;;6.10;94.80;;;;;;4828981;29;20064;-74
2020/12/21 03:10:30;;;;;;;2.73;0.60;;;6.00;94.50;;;;;;4842941;29;20057;-74
2020/12/21 03:12:56;;;;;;;1.77;0.50;;;6.00;94.50;;;;;;4860091;29;20101;-74
2020/12/21 03:15:23;;;;;;;3.40;0.70;;;6.00;94.60;;;;;;4843274;29;20665;-74
2020/12/21 03:17:49;;;;;;;2.37;0.60;;;6.10;94.60;;;;;;4850957;29;20084;-74
2020/12/21 03:20:16;;;;;;;1.90;0.50;;;6.00;94.60;;;;;;4842853;29;20053;-74
2020/12/21 03:22:43;;;;;;;4.33;1.00;;;6.00;94.60;;;;;;4852198;29;20069;-74
2020/12/21 03:25:09;;;;;;;2.40;1.33;;;6.00;94.60;;;;;;4840441;29;20042;-74
2020/12/21 03:27:36;;;;;;;1.70;0.70;;;6.00;94.60;;;;;;4859331;29;20448;-74
2020/12/21 03:30:04;;;;;;;2.43;0.60;;;6.00;94.60;;;;;;4840221;29;20090;-74
2020/12/21 03:32:30;;;;;;;1.90;0.60;;;6.00;94.50;;;;;;4828141;29;20097;-74
2020/12/21 03:34:57;;;;;;;3.80;0.80;;;5.90;94.50;;;;;;4827505;29;20053;-74
2020/12/21 03:37:23;;;;;;;4.20;1.33;;;5.90;94.60;;;;;;4842927;29;20044;-74
2020/12/21 03:39:50;;;;;;;2.73;0.80;;;5.90;94.60;;;;;;4850537;29;20066;-74
2020/12/21 03:42:16;;;;;;;4.93;0.70;;;5.90;94.60;;;;;;4858449;29;20076;-74
2020/12/21 03:44:43;;;;;;;4.87;1.20;;;5.90;94.60;;;;;;4859262;29;20137;-74
2020/12/21 03:47:10;;;;;;;2.53;1.00;;;5.90;94.60;;;;;;4828019;29;20053;-74
2020/12/21 03:49:36;;;;;;;3.97;0.83;;;5.90;94.60;;;;;;4827588;29;20113;-74
2020/12/21 03:52:04;;;;;;;3.63;0.50;;;5.90;94.60;;;;;;4859358;29;20049;-74
2020/12/21 03:54:30;;;;;;;1.40;0.63;;;6.00;94.60;;;;;;4859222;29;20132;-73
2020/12/21 03:56:56;;;;;;;3.00;0.40;;;5.90;94.60;;;;;;4859545;29;20049;-74
2020/12/21 03:59:23;;;;;;;2.30;0.60;;;5.90;94.60;;;;;;4856283;29;20531;-74
2020/12/21 04:01:49;;;;;;;1.33;0.60;;;5.90;94.60;;;;;;4826981;29;20083;-74
2020/12/21 04:04:16;;;;;;;2.80;0.53;;;5.90;94.60;;;;;;4827582;29;20046;-74
2020/12/21 04:06:42;;;;;;;1.90;0.60;;;5.90;94.60;;;;;;4842635;29;20077;-74
2020/12/21 04:09:08;;;;;;;1.57;0.60;;;5.90;94.70;;;;;;4856456;29;20091;-74
2020/12/21 04:11:35;;;;;;;1.77;0.60;;;6.00;94.70;;;;;;4853436;29;20042;-74
2020/12/21 04:14:01;;;;;;;2.13;0.50;;;6.00;94.60;;;;;;4827051;29;20132;-74
2020/12/21 04:16:28;;;;;;;2.17;0.63;;;6.00;94.60;;;;;;4827740;29;20053;-74
2020/12/21 04:18:54;;;;;;;3.00;0.60;;;6.00;94.60;;;;;;4842720;29;20050;-74
2020/12/21 04:21:21;;;;;;;1.77;0.80;;;6.00;94.80;;;;;;4859628;29;20049;-74
2020/12/21 04:23:47;;;;;;;1.80;0.70;;;6.00;94.60;;;;;;4827203;29;20051;-74
2020/12/21 04:26:14;;;;;;;2.80;0.60;;;6.00;94.50;;;;;;4827484;29;20046;-74
2020/12/21 04:28:41;;;;;;;2.43;0.67;;;6.00;94.50;;;;;;4858011;29;20054;-74
2020/12/21 04:31:07;;;;;;;2.67;0.50;;;5.90;94.50;;;;;;4830893;29;20098;-73
2020/12/21 04:33:35;;;;;;;4.03;1.17;;;5.90;94.80;;;;;;4858952;29;20041;-74
2020/12/21 04:36:14;;;;;;;2.23;0.50;;;5.90;94.60;;;;;;4829082;29;20498;-74
2020/12/21 04:38:42;;;;;;;2.20;0.70;;;5.90;94.60;;;;;;4842571;29;20466;-73
2020/12/21 04:41:11;;;;;;;1.27;0.50;;;5.90;94.60;;;;;;4858478;29;20072;-74
2020/12/21 04:43:38;;;;;;;2.27;0.70;;;5.90;94.70;;;;;;4842409;29;20102;-74
2020/12/21 04:46:08;;;;;;;2.23;0.60;;;5.90;94.70;;;;;;4857660;29;20045;-74
2020/12/21 04:48:40;;;;;;;2.57;0.60;;;6.00;94.70;;;;;;4842604;29;20046;-74
2020/12/21 04:51:08;;;;;;;1.95;0.50;;;5.90;94.60;;;;;;4826681;29;20053;-74
2020/12/21 04:53:38;;;;;;;2.50;0.87;;;5.90;94.60;;;;;;4811885;29;20072;-74
2020/12/21 04:56:05;;;;;;;5.20;0.80;;;5.90;94.60;;;;;;4826327;29;20062;-74
2020/12/21 04:58:32;;;;;;;2.03;0.77;;;5.90;94.60;;;;;;4827797;29;20046;-74
2020/12/21 05:00:58;;;;;;;3.60;0.97;;;5.90;94.60;;;;;;4856999;29;20220;-73
2020/12/21 05:03:25;;;;;;;4.07;0.90;;;5.90;94.60;;;;;;4827058;29;20091;-74
2020/12/21 05:05:51;;;;;;;2.80;0.87;;;5.90;94.50;;;;;;4859095;29;20460;-74
2020/12/21 05:08:22;;;;;;;1.93;1.00;;;5.90;94.50;;;;;;4861971;29;20560;-74
2020/12/21 05:11:03;;;;;;;5.10;0.93;;;5.90;94.50;;;;;;4857253;29;20080;-73
2020/12/21 05:13:32;;;;;;;2.37;0.70;;;5.90;94.50;;;;;;4845260;29;20094;-74
2020/12/21 05:15:59;;;;;;;2.10;0.70;;;5.90;94.60;;;;;;4861819;29;20052;-74
2020/12/21 05:18:29;;;;;;;1.90;0.80;;;5.90;94.60;;;;;;4845256;29;20124;-74
2020/12/21 05:21:02;;;;;;;1.80;0.47;;;5.80;94.60;;;;;;4841544;29;20379;-74
2020/12/21 05:23:29;;;;;;;;;;;5.80;94.60;;;;;;4860900;29;20064;-74
2020/12/21 05:26:03;;;;;;;1.07;0.50;;;5.80;94.60;;;;;;4862125;29;19931;-74
2020/12/21 05:28:37;;;;;;;1.60;0.60;;;5.80;94.70;;;;;;4861783;29;20045;-74
2020/12/21 05:31:09;;;;;;;1.20;0.43;;;5.80;94.70;;;;;;4844929;29;20084;-74
2020/12/21 05:33:45;;;;;;;0.97;0.30;;;5.80;94.70;;;;;;4829458;29;20049;-74
2020/12/21 05:36:22;;;;;;;1.37;0.50;;;5.90;94.70;;;;;;4863172;29;20038;-78
2020/12/21 05:39:15;;;;;;;1.53;0.47;;;5.80;94.60;;;;;;4831318;29;20057;-78
2020/12/21 05:41:42;;;;;;;0.73;0.30;;;5.90;94.60;;;;;;4834310;29;20056;-78
2020/12/21 05:44:09;;;;;;;2.47;0.30;;;5.80;94.60;;;;;;4820107;29;20133;-78
2020/12/21 05:46:35;;;;;;;2.50;0.57;;;5.80;94.60;;;;;;4830831;29;20467;-78
2020/12/21 05:49:02;;;;;;;1.23;0.30;;;5.80;94.70;;;;;;4845980;29;20054;-78
2020/12/21 05:51:36;;;;;;;1.53;0.40;;;5.80;94.60;;;;;;4860207;29;20054;-78
2020/12/21 05:54:05;;;;;;;2.93;0.47;;;5.80;94.60;;;;;;4844671;29;20459;-78
2020/12/21 05:56:33;;;;;;;1.83;0.50;;;5.80;94.70;;;;;;4859769;29;20045;-78
2020/12/21 05:59:00;;;;;;;1.10;0.33;;;5.80;94.70;;;;;;4845261;29;20046;-78
2020/12/21 06:01:28;;;;;;;1.53;0.60;;;5.70;94.60;;;;;;4828024;29;20045;-78
2020/12/21 06:04:01;;;;;;;1.33;0.40;;;5.70;94.60;;;;;;4837746;29;20046;-78
2020/12/21 06:06:31;;;;;;;1.30;0.30;;;5.70;94.70;;;;;;4859178;29;20056;-78
2020/12/21 06:09:05;;;;;;;1.57;0.40;;;5.70;94.70;;;;;;4831032;29;20779;-78
2020/12/21 06:11:35;;;;;;;1.60;0.40;;;5.70;94.70;;;;;;4862029;29;20057;-78
2020/12/21 06:14:17;;;;;;;1.77;0.40;;;5.70;94.70;;;;;;4862552;29;20578;-78
2020/12/21 06:16:44;;;;;;;1.43;0.40;;;5.70;94.70;;;;;;4861962;29;20045;-78
2020/12/21 06:19:13;;;;;;;1.03;0.33;;;5.60;94.70;;;;;;4845554;29;20045;-78
2020/12/21 06:21:49;;;;;;;1.87;0.30;;;5.70;94.70;;;;;;4861902;29;20049;-78
2020/12/21 06:24:26;;;;;;;2.13;0.57;;;5.70;94.70;;;;;;4862275;29;20045;-83
2020/12/21 06:26:54;;;;;;;1.10;0.30;;;5.70;94.70;;;;;;4861988;29;20463;-78
2020/12/21 06:29:22;;;;;;;0.77;0.30;;;5.70;94.70;;;;;;4845572;29;20117;-78
2020/12/21 06:32:04;;;;;;;1.27;0.47;;;5.70;94.70;;;;;;4842328;29;20100;-78
2020/12/21 06:34:30;;;;;;;1.37;0.50;;;5.70;94.70;;;;;;4830232;29;20045;-78
2020/12/21 06:37:16;;;;;;;1.30;0.60;;;5.70;94.60;;;;;;4862146;29;20124;-78
2020/12/21 06:39:43;;;;;;;2.10;0.40;;;5.70;94.60;;;;;;4832752;29;20093;-78
2020/12/21 06:42:20;;;;;;;1.70;0.60;;;5.70;94.60;;;;;;4861887;29;20045;-78
2020/12/21 06:44:47;;;;;;;1.60;0.47;;;5.70;94.60;;;;;;4842676;29;20069;-78
2020/12/21 06:47:13;;;;;;;1.53;0.40;;;5.70;94.70;;;;;;4845041;29;20062;-78
2020/12/21 06:49:40;;;;;;;2.23;0.40;;;5.70;94.70;;;;;;4829414;29;20466;-78
2020/12/21 06:52:06;;;;;;;1.20;0.50;;;5.70;94.70;;;;;;4852397;29;20053;-78
2020/12/21 06:54:33;;;;;;;1.17;0.43;;;5.70;94.90;;;;;;4841736;29;20101;-78
2020/12/21 06:57:00;;;;;;;2.80;0.57;;;5.70;94.70;;;;;;4829840;29;20049;-77
2020/12/21 06:59:27;;;;;;;1.50;0.47;;;5.60;94.60;;;;;;4843711;29;20093;-78
2020/12/21 07:01:55;;;;;;;2.53;0.43;;;5.60;94.60;;;;;;4860491;29;20097;-77
2020/12/21 07:04:28;;;;;;;1.10;0.37;;;5.50;94.60;;;;;;4849687;29;20141;-77
2020/12/21 07:06:55;;;;;;;;;;;5.50;94.60;;;;;;4858276;29;20078;-77
2020/12/21 07:09:23;;;;;;;1.40;0.40;;;5.50;94.90;;;;;;4844782;29;19923;-77
2020/12/21 07:11:54;;;;;;;1.20;0.33;;;5.50;94.70;;;;;;4850237;29;20120;-78
2020/12/21 07:14:22;;;;;;;1.10;0.50;;;5.50;94.70;;;;;;4828976;29;20041;-78
2020/12/21 07:16:59;;;;;;;2.10;0.50;;;5.40;94.70;;;;;;4842653;29;20042;-78
2020/12/21 07:19:26;;;;;;;2.33;0.50;;;5.50;94.70;;;;;;4842253;29;20064;-75
2020/12/21 07:21:54;;;;;;;0.97;0.50;;;5.50;94.70;;;;;;4859990;29;20379;-75
2020/12/21 07:24:23;;;;;;;2.17;0.70;;;5.50;94.70;;;;;;4843536;29;20443;-74
2020/12/21 07:26:52;;;;;;;2.67;0.60;;;5.50;94.60;;;;;;4852279;29;20065;-75
2020/12/21 07:29:19;;;;;;;1.83;0.60;;;5.50;94.60;;;;;;4840612;29;20050;-78
2020/12/21 07:31:46;;;;;;;1.40;0.40;;;5.60;94.70;;;;;;4859928;29;20474;-79
2020/12/21 07:34:12;;;;;;;1.77;0.70;;;5.60;94.60;;;;;;4844711;29;20053;-78
2020/12/21 07:36:40;;;;;;;2.37;0.60;;;5.60;94.60;;;;;;4859955;29;20077;-75
2020/12/21 07:39:17;;;;;;;3.57;0.70;;;5.70;94.60;;;;;;4827507;29;20046;-75
2020/12/21 07:41:46;;;;;;;2.47;0.40;;;5.70;94.60;;;;;;4843357;29;20371;-73
2020/12/21 07:44:28;;;;;;;1.67;0.60;;;5.70;94.60;;;;;;4842620;29;20443;-77
2020/12/21 07:47:06;;;;;;;3.47;0.70;;;5.70;94.60;;;;;;4834679;29;20046;-78
2020/12/21 07:49:34;;;;;;;2.23;0.57;;;5.70;94.60;;;;;;4844318;29;20554;-78
2020/12/21 07:52:09;;;;;;;2.37;0.90;;;5.70;94.60;;;;;;4859752;29;20045;-78
2020/12/21 07:54:42;;;;;;;1.70;0.60;;;5.70;94.60;;;;;;4829398;29;20037;-79
2020/12/21 07:57:10;;;;;;;2.40;0.63;;;5.70;94.60;;;;;;4860867;29;20044;-78
2020/12/21 07:59:37;;;;;;;4.13;0.90;;;5.70;94.60;;;;;;4860742;29;20076;-78
2020/12/21 08:02:07;;;;;;;2.43;0.60;;;5.70;94.80;;;;;;4859398;29;20116;-74
2020/12/21 08:04:34;;;;;;;2.40;0.70;;;5.80;94.60;;;;;;4827821;29;20393;-74
2020/12/21 08:07:04;;;;;;;2.53;0.87;;;5.80;94.60;;;;;;4852811;29;20076;-74
2020/12/21 08:09:38;;;;;;;2.93;0.93;;;5.80;94.60;;;;;;4828688;29;20049;-74
2020/12/21 08:12:08;;;;;;;2.87;0.90;;;5.90;94.60;;;;;;4851900;29;20453;-78
2020/12/21 08:14:36;;;;;;;3.77;1.00;;;6.00;94.60;;;;;;4849218;29;20041;-74
2020/12/21 08:17:16;;;;;;;2.13;0.50;;;6.00;94.60;;;;;;4842019;29;20042;-74
2020/12/21 08:19:51;;;;;;;2.83;0.60;;;6.10;94.60;;;;;;4827430;29;20872;-78
2020/12/21 08:22:19;;;;;;;2.23;0.60;;;6.20;94.60;;;;;;4848896;29;20045;-74
2020/12/21 08:24:58;;;;;;;1.67;0.60;;;6.20;94.50;;;;;;4826565;29;20113;-74
2020/12/21 08:27:34;;;;;;;2.67;0.70;;;6.20;94.50;;;;;;4838490;29;20102;-74
2020/12/21 08:30:20;;;;;;;3.43;0.90;;;6.30;94.50;;;;;;4827308;29;20514;-74
2020/12/21 08:32:47;;;;;;;2.27;0.70;;;6.30;94.50;;;;;;4850088;29;20525;-74
2020/12/21 08:35:23;;;;;;;3.60;0.80;;;6.40;94.50;;;;;;4835512;29;20097;-74
2020/12/21 08:37:50;;;;;;;3.00;0.60;;;6.40;94.40;;;;;;4859065;29;20049;-74
2020/12/21 08:40:19;;;;;;;3.03;0.80;;;6.50;94.40;;;;;;4842672;29;20053;-74
2020/12/21 08:42:48;;;;;;;3.27;0.90;;;6.50;94.40;;;;;;4862819;29;20133;-74
2020/12/21 08:45:24;;;;;;;2.43;0.70;;;6.60;94.40;;;;;;4839543;29;20069;-74
2020/12/21 08:47:51;;;;;;;3.63;1.20;;;6.60;94.40;;;;;;4861255;29;20555;-74
2020/12/21 08:50:17;;;;;;;3.90;1.20;;;6.60;94.30;;;;;;4862233;29;20177;-74
2020/12/21 08:52:47;;;;;;;3.07;1.30;;;6.70;94.30;;;;;;4852256;29;20137;-74
2020/12/21 08:55:14;;;;;;;2.43;0.73;;;6.70;94.30;;;;;;4862312;29;20061;-74
2020/12/21 08:57:42;;;;;;;2.37;0.90;;;6.80;94.30;;;;;;4862559;29;20110;-74
2020/12/21 09:00:09;;;;;;;3.87;1.20;;;6.80;94.30;;;;;;4844543;29;20037;-74
2020/12/21 09:02:36;;;;;;;1.73;0.87;;;6.80;94.20;;;;;;4799833;29;20050;-74
2020/12/21 09:05:05;;;;;;;2.47;0.80;;;6.90;94.20;;;;;;4815669;29;20525;-73
2020/12/21 09:07:35;;;;;;;;;;;6.90;94.20;;;;;;4829445;29;20053;-73
2020/12/21 09:10:04;;;;;;;4.80;0.80;;;7.00;94.20;;;;;;4859412;29;19924;-74
2020/12/21 09:12:31;;;;;;;5.20;0.83;;;7.00;94.20;;;;;;4845291;29;20069;-73
2020/12/21 09:15:00;;;;;;;2.03;0.80;;;7.00;94.20;;;;;;4860787;29;20057;-74
2020/12/21 09:17:27;;;;;;;3.17;0.80;;;7.10;94.10;;;;;;4845100;29;20037;-75
2020/12/21 09:19:53;;;;;;;5.57;1.77;;;7.20;94.10;;;;;;4845775;29;20094;-75
2020/12/21 09:22:24;;;;;;;2.37;1.17;;;7.20;94.40;;;;;;4813040;29;20045;-74
2020/12/21 09:24:50;;;;;;;2.20;0.80;;;7.30;94.10;;;;;;4845673;29;20099;-74
2020/12/21 09:27:16;;;;;;;2.23;0.70;;;7.30;94.00;;;;;;4845075;29;20494;-74
2020/12/21 09:29:43;;;;;;;3.23;1.37;;;7.40;94.10;;;;;;4860838;29;20509;-74
2020/12/21 09:32:09;;;;;;;3.53;0.80;;;7.40;94.00;;;;;;4860494;29;20118;-73
2020/12/21 09:34:39;;;;;;;4.07;0.73;;;7.50;94.00;;;;;;4815081;29;20057;-74
2020/12/21 09:37:06;;;;;;;4.03;0.70;;;7.50;94.00;;;;;;4853611;29;20049;-74
2020/12/21 09:39:32;;;;;;;4.30;1.20;;;7.50;93.90;;;;;;4829890;29;20077;-74
2020/12/21 09:41:59;;;;;;;4.20;1.73;;;7.60;93.90;;;;;;4811948;29;20046;-73
2020/12/21 09:44:25;;;;;;;3.23;0.90;;;7.70;93.90;;;;;;4857536;29;20105;-74
2020/12/21 09:46:51;;;;;;;1.97;0.70;;;7.70;93.80;;;;;;4861485;29;20045;-74
2020/12/21 09:49:18;;;;;;;2.83;1.10;;;7.70;93.80;;;;;;4845326;29;20049;-75
2020/12/21 09:51:50;;;;;;;5.00;1.00;;;7.70;93.80;;;;;;4827112;29;20502;-75
2020/12/21 09:54:17;;;;;;;3.53;0.90;;;7.70;93.80;;;;;;4856690;29;20069;-75
2020/12/21 09:56:47;;;;;;;4.70;0.90;;;7.70;93.80;;;;;;4845147;29;20052;-73
2020/12/21 09:59:14;;;;;;;2.57;0.50;;;7.70;93.80;;;;;;4829824;29;20129;-73
2020/12/21 10:01:41;;;;;;;2.50;0.50;;;7.80;93.90;;;;;;4843336;29;20081;-73
2020/12/21 10:04:07;;;;;;;1.40;0.50;;;7.80;93.90;;;;;;4825579;29;20046;-73
2020/12/21 10:06:34;;;;;;;1.13;0.47;;;7.80;93.90;;;;;;4860749;29;20435;-73
2020/12/21 10:09:01;;;;;;;1.57;0.53;;;7.80;93.90;;;;;;4861279;29;20042;-73
2020/12/21 10:11:27;;;;;;;1.83;0.60;;;7.80;93.90;;;;;;4816705;29;20548;-73
2020/12/21 10:13:54;;;;;;;3.13;0.90;;;7.90;93.80;;;;;;4829664;29;20073;-73
2020/12/21 10:16:20;;;;;;;2.67;0.60;;;7.90;93.80;;;;;;4829682;29;20049;-74
2020/12/21 10:18:47;;;;;;;2.23;0.80;;;7.90;93.80;;;;;;4844053;29;20479;-74
2020/12/21 10:21:15;;;;;;;1.83;0.70;;;7.90;93.80;;;;;;4843671;29;20044;-75
2020/12/21 10:23:41;;;;;;;2.03;0.80;;;7.90;93.80;;;;;;4814197;29;20049;-73
2020/12/21 10:26:08;;;;;;;2.40;0.73;;;7.90;93.80;;;;;;4843937;29;20041;-73
2020/12/21 10:28:35;;;;;;;4.63;0.70;;;7.90;93.80;;;;;;4844476;29;20502;-73
2020/12/21 10:31:02;;;;;;;3.63;0.67;;;7.90;93.80;;;;;;4836477;29;20081;-73
2020/12/21 10:33:29;;;;;;;2.60;0.60;;;8.00;93.80;;;;;;4841728;29;20505;-74
2020/12/21 10:35:55;;;;;;;4.83;0.73;;;8.00;93.80;;;;;;4836211;29;20046;-73
2020/12/21 10:38:22;;;;;;;2.67;0.70;;;8.00;93.80;;;;;;4844325;29;20053;-73
2020/12/21 10:40:48;;;;;;;3.23;0.70;;;8.10;93.80;;;;;;4843611;29;20053;-74
2020/12/21 10:43:15;;;;;;;3.60;1.30;;;8.00;93.80;;;;;;4860195;29;20073;-73
2020/12/21 10:45:41;;;;;;;3.03;0.97;;;8.00;93.80;;;;;;4844151;29;20049;-73
2020/12/21 10:48:08;;;;;;;2.10;0.60;;;8.10;93.80;;;;;;4828628;29;20091;-73
2020/12/21 10:50:35;;;;;;;5.03;1.10;;;8.10;93.80;;;;;;4860525;29;20048;-74
2020/12/21 10:53:02;;;;;;;2.90;1.00;;;8.00;93.70;;;;;;4804325;29;20129;-73
2020/12/21 10:55:29;;;;;;;1.30;0.67;;;8.00;93.70;;;;;;4843785;29;20049;-74
2020/12/21 10:57:55;;;;;;;2.53;0.80;;;8.10;93.80;;;;;;4859884;29;20525;-74
2020/12/21 11:00:24;;;;;;;1.90;0.70;;;8.10;93.80;;;;;;4821487;29;20412;-74
2020/12/21 11:02:51;;;;;;;2.47;0.80;;;8.10;93.80;;;;;;4851540;29;20045;-74
2020/12/21 11:05:17;;;;;;;6.73;0.90;;;8.10;93.80;;;;;;4859473;29;20478;-74
2020/12/21 11:07:44;;;;;;;1.73;0.60;;;8.10;93.80;;;;;;4859276;29;20050;-74
2020/12/21 11:10:28;;;;;;;2.57;0.90;;;8.10;93.80;;;;;;4819100;29;20049;-74
2020/12/21 11:12:55;;;;;;;3.20;0.83;;;8.10;93.90;;;;;;4843212;29;20057;-74
2020/12/21 11:15:25;;;;;;;2.03;0.57;;;8.00;93.90;;;;;;4859456;29;20542;-74
2020/12/21 11:17:52;;;;;;;2.63;0.77;;;8.00;93.80;;;;;;4841650;29;20049;-73
2020/12/21 11:20:18;;;;;;;5.27;1.07;;;8.00;94.10;;;;;;4856044;29;20034;-73
2020/12/21 11:22:45;;;;;;;4.07;0.80;;;8.10;93.90;;;;;;4845821;29;20034;-73
2020/12/21 11:25:12;;;;;;;2.03;0.60;;;8.00;93.90;;;;;;4857789;29;20098;-73
2020/12/21 11:27:40;;;;;;;2.03;0.60;;;8.00;93.90;;;;;;4853329;29;20061;-73
2020/12/21 11:30:07;;;;;;;2.97;0.80;;;8.00;93.90;;;;;;4859287;29;20053;-73
2020/12/21 11:32:37;;;;;;;1.40;0.60;;;8.00;93.90;;;;;;4830211;29;20557;-73
2020/12/21 11:35:06;;;;;;;2.70;1.07;;;8.00;94.00;;;;;;4859950;29;20049;-73
2020/12/21 11:37:33;;;;;;;3.70;0.80;;;8.00;94.20;;;;;;4828072;29;20049;-73
2020/12/21 11:40:00;;;;;;;1.83;0.70;;;8.00;94.00;;;;;;4852707;29;20054;-75
2020/12/21 11:42:27;;;;;;;2.30;0.77;;;8.00;94.00;;;;;;4828552;29;20126;-74
2020/12/21 11:44:54;;;;;;;1.47;0.60;;;8.00;94.00;;;;;;4850575;29;20101;-73
2020/12/21 11:47:20;;;;;;;2.70;1.07;;;8.00;94.10;;;;;;4843278;29;20129;-73
2020/12/21 11:49:46;;;;;;;2.50;0.90;;;8.00;94.10;;;;;;4857748;29;20459;-79
2020/12/21 11:52:13;;;;;;;1.47;0.70;;;8.00;94.10;;;;;;4813390;29;20053;-77
2020/12/21 11:54:58;;;;;;;3.43;0.80;;;8.00;94.20;;;;;;4841428;29;20052;-76
2020/12/21 11:57:26;;;;;;;2.47;0.60;;;8.00;94.20;;;;;;4859049;29;20042;-76
2020/12/21 11:59:54;;;;;;;3.53;1.10;;;8.00;94.20;;;;;;4825797;29;20046;-76
2020/12/21 12:02:20;;;;;;;3.53;0.93;;;8.00;94.20;;;;;;4843594;29;20049;-77
2020/12/21 12:04:48;;;;;;;4.03;1.00;;;8.00;94.20;;;;;;4858279;29;20049;-76
2020/12/21 12:07:14;;;;;;;4.77;1.30;;;8.00;94.20;;;;;;4854064;29;20136;-77
2020/12/21 12:09:44;;;;;;;4.17;1.00;;;8.00;94.20;;;;;;4859745;29;20405;-77
2020/12/21 12:12:10;;;;;;;2.77;0.97;;;8.00;94.30;;;;;;4848891;29;20110;-77
2020/12/21 12:14:37;;;;;;;3.37;0.90;;;8.00;94.30;;;;;;4852604;29;20045;-76
2020/12/21 12:17:07;;;;;;;3.23;1.20;;;8.00;94.30;;;;;;4841900;29;20398;-76
2020/12/21 12:19:36;;;;;;;2.47;0.70;;;8.00;94.30;;;;;;4826750;29;20050;-76
2020/12/21 12:22:03;;;;;;;3.53;0.90;;;8.00;94.40;;;;;;4842791;29;20757;-76
2020/12/21 12:24:29;;;;;;;1.43;0.50;;;8.00;94.40;;;;;;4858767;29;20169;-77
2020/12/21 12:26:56;;;;;;;2.50;0.80;;;8.00;94.40;;;;;;4844037;29;20069;-76
2020/12/21 12:29:23;;;;;;;3.93;0.90;;;8.00;94.40;;;;;;4843421;29;20097;-77
2020/12/21 12:31:49;;;;;;;2.17;0.83;;;8.00;94.40;;;;;;4854800;29;20128;-77
2020/12/21 12:34:16;;;;;;;2.63;1.10;;;8.00;94.40;;;;;;4848750;29;20033;-77
2020/12/21 12:36:43;;;;;;;6.03;1.23;;;8.00;94.50;;;;;;4845522;29;20045;-75
2020/12/21 12:39:10;;;;;;;3.53;1.30;;;8.00;94.50;;;;;;4862225;29;20046;-75
2020/12/21 12:41:41;;;;;;;4.23;0.80;;;8.10;94.50;;;;;;4859710;29;20116;-76
2020/12/21 12:44:09;;;;;;;3.87;1.10;;;8.00;94.50;;;;;;4861517;29;20057;-76
2020/12/21 12:46:37;;;;;;;4.40;1.07;;;8.00;94.50;;;;;;4862971;29;20455;-78
2020/12/21 12:49:06;;;;;;;4.80;1.20;;;8.00;94.50;;;;;;4861734;29;20080;-76
2020/12/21 12:51:34;;;;;;;3.07;1.23;;;8.10;94.60;;;;;;4862561;29;20069;-76
2020/12/21 12:54:01;;;;;;;4.87;1.20;;;8.00;94.60;;;;;;4863110;29;20049;-76
2020/12/21 12:56:27;;;;;;;3.90;1.87;;;8.00;94.60;;;;;;4846818;29;20060;-77
2020/12/21 12:58:54;;;;;;;3.20;1.70;;;8.10;94.60;;;;;;4822614;29;20079;-77
2020/12/21 13:01:21;;;;;;;2.40;1.27;;;8.00;94.60;;;;;;4859418;29;20042;-77
2020/12/21 13:03:48;;;;;;;3.57;1.43;;;8.10;94.60;;;;;;4841588;29;20509;-75
2020/12/21 13:06:14;;;;;;;3.60;1.37;;;8.10;94.60;;;;;;4854143;29;20046;-76